Time;durP1;ratioP1;P1;durP2;ratioP2;P2;SDS_P1;SDS_P2;PMS_P1;PMS_P2;Temp;Humidity;BMP_temperature;BMP_pressure;BME280_temperature;BME280_humidity;BME280_pressure;Samples;Min_cycle;Max_cycle;Signal;HPM_P1;HPM_P2
2024/02/09 00:00:17;;;;;;;7.43;3.28;;;10.70;99.90;;;;;;4140292;28;20034;-70
2024/02/09 00:02:19;;;;;;;9.85;3.50;;;10.70;99.90;;;;;;4142931;28;20037;-71
2024/02/09 00:04:20;;;;;;;11.60;3.60;;;10.70;99.90;;;;;;4141393;28;20457;-69
2024/02/09 00:06:20;;;;;;;10.90;3.42;;;10.70;99.90;;;;;;4140713;28;20030;-71
2024/02/09 00:08:22;;;;;;;8.65;3.03;;;10.70;99.90;;;;;;4141336;28;20092;-71
2024/02/09 00:10:23;;;;;;;6.07;3.30;;;10.70;99.90;;;;;;4142366;28;20298;-71
2024/02/09 00:12:24;;;;;;;10.02;2.70;;;10.70;99.90;;;;;;4143425;28;20045;-72
2024/02/09 00:14:27;;;;;;;9.32;3.33;;;10.70;99.90;;;;;;4143531;28;20461;-71
2024/02/09 00:16:31;;;;;;;10.88;3.38;;;10.70;99.90;;;;;;4142289;28;20026;-72
2024/02/09 00:18:31;;;;;;;11.70;3.38;;;10.70;99.90;;;;;;4143506;28;20034;-72
2024/02/09 00:20:32;;;;;;;15.93;3.97;;;10.70;99.90;;;;;;4141255;28;20041;-71
2024/02/09 00:22:39;;;;;;;9.20;3.40;;;10.70;99.90;;;;;;4143563;28;20038;-71
2024/02/09 00:24:43;;;;;;;11.45;3.58;;;10.60;99.90;;;;;;4142331;28;20045;-71
2024/02/09 00:26:43;;;;;;;12.40;3.42;;;10.70;99.90;;;;;;4141349;28;20376;-72
2024/02/09 00:28:44;;;;;;;9.35;3.58;;;10.60;99.90;;;;;;4137577;28;20160;-69
2024/02/09 00:30:44;;;;;;;12.63;4.30;;;10.70;99.90;;;;;;4142840;28;20406;-70
2024/02/09 00:32:46;;;;;;;11.80;3.42;;;10.60;99.90;;;;;;4143355;28;20133;-70
2024/02/09 00:34:46;;;;;;;6.95;2.63;;;10.60;99.90;;;;;;4140866;28;20034;-71
2024/02/09 00:36:47;;;;;;;11.55;3.25;;;10.60;99.90;;;;;;4141606;28;20092;-71
2024/02/09 00:38:50;;;;;;;7.43;3.13;;;10.60;99.90;;;;;;4142351;28;20034;-67
2024/02/09 00:40:51;;;;;;;;;;;10.60;99.90;;;;;;4142165;28;20045;-67
2024/02/09 00:42:52;;;;;;;8.50;2.88;;;10.60;99.90;;;;;;4143072;28;19928;-67
2024/02/09 00:44:53;;;;;;;9.07;3.08;;;10.60;99.90;;;;;;4142839;28;20042;-67
2024/02/09 00:46:54;;;;;;;8.32;2.88;;;10.60;99.90;;;;;;4142169;28;20027;-67
2024/02/09 00:48:54;;;;;;;9.55;2.95;;;10.60;99.90;;;;;;4142750;28;20058;-67
2024/02/09 00:50:55;;;;;;;7.30;3.10;;;10.60;99.90;;;;;;4140380;28;20030;-67
2024/02/09 00:53:00;;;;;;;7.47;2.92;;;10.60;99.90;;;;;;4142502;28;20120;-67
2024/02/09 00:55:01;;;;;;;9.30;2.70;;;10.60;99.90;;;;;;4142782;28;20541;-67
2024/02/09 00:57:01;;;;;;;9.80;3.35;;;10.60;99.90;;;;;;4139968;28;20034;-67
2024/02/09 00:59:02;;;;;;;10.85;3.10;;;10.60;99.90;;;;;;4141580;28;20132;-69
2024/02/09 01:01:03;;;;;;;6.10;2.35;;;10.70;99.90;;;;;;4142851;28;20042;-69
2024/02/09 01:03:04;;;;;;;9.38;2.55;;;10.60;99.90;;;;;;4141003;28;20056;-69
2024/02/09 01:05:05;;;;;;;8.65;2.83;;;10.60;99.90;;;;;;4142603;28;23123;-70
2024/02/09 01:07:06;;;;;;;6.05;2.85;;;10.60;99.90;;;;;;4140536;28;20414;-69
2024/02/09 01:09:08;;;;;;;10.35;2.53;;;10.60;99.90;;;;;;4141557;28;20042;-70
2024/02/09 01:11:09;;;;;;;6.90;2.27;;;10.60;99.90;;;;;;4141671;28;20053;-69
2024/02/09 02:45:48;;;;;;;14.32;3.15;;;10.50;99.90;;;;;;4143721;28;20026;-66
2024/02/09 03:04:18;;;;;;;13.05;3.10;;;10.50;99.90;;;;;;4143517;28;20041;-66
2024/02/09 03:04:20;;;;;;;7.00;2.58;;;10.50;99.90;;;;;;4137188;28;20103;-61
2024/02/09 03:06:22;;;;;;;6.55;2.50;;;10.50;99.90;;;;;;4143228;28;20034;-61
2024/02/09 03:08:23;;;;;;;9.45;3.22;;;10.50;99.90;;;;;;4143876;28;20042;-63
2024/02/09 03:10:24;;;;;;;9.10;2.50;;;10.50;99.90;;;;;;4142629;28;20120;-61
2024/02/09 03:12:28;;;;;;;10.23;2.85;;;10.50;99.90;;;;;;4144411;28;20476;-61
2024/02/09 03:14:30;;;;;;;7.82;2.22;;;10.50;99.90;;;;;;4147618;28;20087;-61
2024/02/09 03:16:33;;;;;;;5.97;2.60;;;10.50;99.90;;;;;;4143617;28;20155;-61
2024/02/09 03:18:34;;;;;;;5.28;2.45;;;10.50;99.90;;;;;;4145984;28;20092;-66
2024/02/09 03:20:34;;;;;;;5.93;2.30;;;10.50;99.90;;;;;;4143301;28;20022;-66
2024/02/09 03:22:35;;;;;;;5.70;2.10;;;10.50;99.90;;;;;;4144718;28;20105;-66
2024/02/09 03:24:39;;;;;;;8.32;2.53;;;10.50;99.90;;;;;;4149901;28;20343;-66
2024/02/09 03:26:41;;;;;;;5.85;2.13;;;10.50;99.90;;;;;;4141577;28;20450;-66
2024/02/09 03:28:43;;;;;;;7.47;2.47;;;10.50;99.90;;;;;;4140521;28;20125;-66
2024/02/09 03:30:43;;;;;;;8.63;2.38;;;10.50;99.90;;;;;;4141426;28;20462;-66
2024/02/09 03:32:44;;;;;;;7.18;2.05;;;10.50;99.90;;;;;;4144055;28;20121;-66
2024/02/09 03:34:47;;;;;;;11.32;2.70;;;10.50;99.90;;;;;;4143907;28;20030;-66
2024/02/09 03:36:47;;;;;;;7.97;1.90;;;10.50;99.90;;;;;;4138630;28;20026;-66
2024/02/09 03:38:48;;;;;;;7.30;1.73;;;10.50;99.90;;;;;;4143133;28;20042;-66
2024/02/09 03:40:51;;;;;;;5.70;1.85;;;10.50;99.90;;;;;;4142853;28;20034;-67
2024/02/09 03:42:52;;;;;;;5.43;1.98;;;10.50;99.90;;;;;;4143681;28;20041;-66
2024/02/09 03:44:54;;;;;;;7.15;2.00;;;10.50;99.90;;;;;;4144422;28;20070;-66
2024/02/09 03:46:54;;;;;;;6.43;2.05;;;10.50;99.90;;;;;;4140982;28;20030;-66
2024/02/09 03:48:55;;;;;;;5.43;2.53;;;10.50;99.90;;;;;;4142607;28;20072;-66
2024/02/09 03:50:56;;;;;;;7.80;2.00;;;10.50;99.90;;;;;;4142411;28;20030;-66
2024/02/09 03:52:56;;;;;;;8.45;2.45;;;10.50;99.90;;;;;;4143600;28;20432;-66
2024/02/09 03:54:57;;;;;;;8.00;2.13;;;10.50;99.90;;;;;;4147869;28;20037;-66
2024/02/09 03:56:57;;;;;;;5.47;1.60;;;10.50;99.90;;;;;;4142869;28;20490;-66
2024/02/09 03:58:58;;;;;;;4.70;1.92;;;10.50;99.90;;;;;;4140733;28;20467;-66
2024/02/09 04:01:02;;;;;;;4.07;1.50;;;10.50;99.90;;;;;;4142195;28;20042;-66
2024/02/09 04:03:02;;;;;;;2.95;1.60;;;10.50;99.90;;;;;;4142986;28;20054;-66
2024/02/09 04:05:04;;;;;;;5.03;1.77;;;10.50;99.90;;;;;;4144358;28;20049;-66
2024/02/09 04:07:05;;;;;;;5.38;2.08;;;10.50;99.90;;;;;;4137369;28;20061;-66
2024/02/09 04:09:06;;;;;;;4.07;1.58;;;10.50;99.90;;;;;;4143242;28;20054;-67
2024/02/09 04:11:07;;;;;;;5.97;1.75;;;10.50;99.90;;;;;;4140983;28;20488;-67
2024/02/09 04:13:07;;;;;;;2.15;1.15;;;10.50;99.90;;;;;;4144557;28;20189;-67
2024/02/09 04:15:11;;;;;;;4.13;1.40;;;10.50;99.90;;;;;;4144701;28;20382;-69
2024/02/09 04:17:11;;;;;;;5.22;1.80;;;10.50;99.90;;;;;;4143509;28;20501;-67
2024/02/09 04:19:14;;;;;;;3.20;1.60;;;10.50;99.90;;;;;;4142074;28;20034;-67
2024/02/09 04:21:15;;;;;;;5.95;1.75;;;10.50;99.90;;;;;;4142491;28;20061;-67
2024/02/09 04:23:15;;;;;;;5.32;1.92;;;10.50;99.90;;;;;;4142899;28;20034;-67
2024/02/09 04:25:16;;;;;;;2.92;1.30;;;10.50;99.90;;;;;;4144456;28;20471;-67
2024/02/09 04:27:17;;;;;;;3.17;1.13;;;10.50;99.90;;;;;;4143218;28;20037;-66
2024/02/09 04:29:22;;;;;;;5.78;1.73;;;10.50;99.90;;;;;;4142329;28;20088;-69
2024/02/09 04:31:26;;;;;;;2.95;1.33;;;10.50;99.90;;;;;;4141309;28;20041;-69
2024/02/09 04:33:27;;;;;;;4.38;1.75;;;10.50;99.90;;;;;;4142699;28;20034;-69
2024/02/09 04:35:27;;;;;;;4.05;1.60;;;10.50;99.90;;;;;;4146040;28;20037;-68
2024/02/09 04:37:28;;;;;;;2.78;1.27;;;10.50;99.90;;;;;;4143679;28;20063;-69
2024/02/09 04:39:29;;;;;;;4.22;1.60;;;10.50;99.90;;;;;;4143142;28;20038;-69
2024/02/09 04:41:29;;;;;;;3.97;1.80;;;10.50;99.90;;;;;;4141137;28;20037;-68
2024/02/09 04:43:30;;;;;;;4.35;1.88;;;10.50;99.90;;;;;;4143024;28;20153;-68
2024/02/09 04:45:30;;;;;;;3.78;1.75;;;10.50;99.90;;;;;;4145685;28;20229;-69
2024/02/09 04:47:31;;;;;;;3.97;1.90;;;10.50;99.90;;;;;;4142749;28;20064;-68
2024/02/09 04:49:32;;;;;;;2.70;1.50;;;10.50;99.90;;;;;;4143727;28;20088;-68
2024/02/09 04:51:33;;;;;;;3.20;1.45;;;10.60;99.90;;;;;;4142256;28;20038;-68
2024/02/09 04:53:34;;;;;;;3.35;1.65;;;10.50;99.90;;;;;;4143760;28;20149;-69
2024/02/09 04:55:35;;;;;;;4.60;1.75;;;10.60;99.90;;;;;;4142466;28;20394;-69
2024/02/09 04:57:35;;;;;;;1.60;1.00;;;10.60;99.90;;;;;;4142502;28;20038;-69
2024/02/09 04:59:36;;;;;;;3.17;1.08;;;10.60;99.90;;;;;;4142674;28;20040;-69
2024/02/09 05:01:39;;;;;;;2.05;0.82;;;10.60;99.90;;;;;;4139940;28;20557;-69
2024/02/09 05:03:40;;;;;;;3.88;1.05;;;10.60;99.90;;;;;;4148439;28;20042;-69
2024/02/09 05:05:41;;;;;;;4.45;1.33;;;10.60;99.90;;;;;;4141781;28;20052;-68
2024/02/09 05:07:42;;;;;;;3.58;1.30;;;10.60;99.90;;;;;;4142333;28;20100;-69
2024/02/09 05:09:42;;;;;;;3.88;1.00;;;10.60;99.90;;;;;;4142439;28;20099;-69
2024/02/09 05:11:43;;;;;;;1.58;0.88;;;10.60;99.90;;;;;;4143095;28;20474;-68
2024/02/09 05:13:45;;;;;;;3.67;1.13;;;10.60;99.90;;;;;;4146150;28;20030;-68
2024/02/09 05:15:46;;;;;;;2.15;1.20;;;10.60;99.90;;;;;;4144876;28;20045;-69
2024/02/09 05:17:46;;;;;;;2.10;1.20;;;10.60;99.90;;;;;;4143491;28;20096;-67
2024/02/09 05:19:48;;;;;;;3.35;0.90;;;10.60;99.90;;;;;;4144033;28;20367;-61
2024/02/09 05:21:48;;;;;;;1.48;0.88;;;10.50;99.90;;;;;;4142681;28;20029;-63
2024/02/09 05:23:49;;;;;;;2.45;0.93;;;10.60;99.90;;;;;;4144170;28;20042;-61
2024/02/09 05:25:50;;;;;;;1.77;1.00;;;10.60;99.90;;;;;;4142035;28;20037;-61
2024/02/09 05:27:51;;;;;;;3.00;1.10;;;10.60;99.90;;;;;;4144146;28;20131;-61
2024/02/09 05:29:52;;;;;;;2.20;0.85;;;10.60;99.90;;;;;;4143505;28;20125;-61
2024/02/09 05:31:56;;;;;;;3.80;1.27;;;10.60;99.90;;;;;;4142964;28;20686;-61
2024/02/09 05:33:56;;;;;;;2.40;1.30;;;10.60;99.90;;;;;;4146739;28;20053;-61
2024/02/09 05:35:57;;;;;;;5.55;1.30;;;10.60;99.90;;;;;;4142495;28;20363;-62
2024/02/09 05:37:57;;;;;;;4.07;1.05;;;10.50;99.90;;;;;;4143688;28;20038;-60
2024/02/09 05:39:58;;;;;;;3.13;1.10;;;10.60;99.90;;;;;;4143331;28;20042;-72
2024/02/09 05:41:59;;;;;;;2.95;1.02;;;10.60;99.90;;;;;;4144850;28;20034;-72
2024/02/09 05:43:59;;;;;;;4.13;1.33;;;10.60;99.90;;;;;;4145761;28;20050;-72
2024/02/09 05:46:00;;;;;;;4.88;1.10;;;10.60;99.90;;;;;;4146663;28;20514;-72
2024/02/09 05:48:00;;;;;;;4.93;1.20;;;10.60;99.90;;;;;;4144957;28;20050;-72
2024/02/09 05:50:01;;;;;;;1.20;1.00;;;10.60;99.90;;;;;;4141555;28;20041;-72
2024/02/09 05:52:02;;;;;;;1.40;1.05;;;10.60;99.90;;;;;;4148345;28;20542;-72
2024/02/09 05:54:03;;;;;;;2.75;1.30;;;10.60;99.90;;;;;;4145859;28;20119;-72
2024/02/09 05:56:05;;;;;;;2.10;1.10;;;10.60;99.90;;;;;;4144694;28;20539;-72
2024/02/09 05:58:05;;;;;;;2.17;1.17;;;10.60;99.90;;;;;;4143586;28;20041;-72
2024/02/09 06:00:14;;;;;;;1.58;1.10;;;10.60;99.90;;;;;;4144483;28;20048;-72
2024/02/09 06:02:17;;;;;;;5.40;1.80;;;10.60;99.90;;;;;;4139260;28;20037;-72
2024/02/09 06:04:17;;;;;;;3.75;1.90;;;10.60;99.90;;;;;;4141287;28;20069;-72
2024/02/09 06:06:20;;;;;;;4.97;1.98;;;10.60;99.90;;;;;;4144038;28;20045;-72
2024/02/09 06:08:22;;;;;;;12.52;3.47;;;10.60;99.90;;;;;;4146307;28;20053;-71
2024/02/09 06:10:23;;;;;;;10.20;2.90;;;10.60;99.90;;;;;;4141148;28;20527;-72
2024/02/09 06:12:23;;;;;;;9.40;3.45;;;10.60;99.90;;;;;;4144801;28;20045;-72
2024/02/09 06:14:24;;;;;;;7.55;2.63;;;10.60;99.90;;;;;;4143920;28;20038;-72
2024/02/09 06:16:26;;;;;;;7.78;2.95;;;10.60;99.90;;;;;;4145059;28;20037;-72
2024/02/09 06:18:27;;;;;;;5.30;2.15;;;10.60;99.90;;;;;;4143054;28;20038;-70
2024/02/09 06:20:28;;;;;;;6.22;2.17;;;10.70;99.90;;;;;;4143441;28;20121;-71
2024/02/09 06:22:28;;;;;;;4.53;1.75;;;10.60;99.90;;;;;;4143571;28;20065;-72
2024/02/09 06:24:29;;;;;;;4.55;2.15;;;10.60;99.90;;;;;;4146276;28;20370;-71
2024/02/09 06:26:30;;;;;;;5.75;2.17;;;10.70;99.90;;;;;;4144998;28;20113;-72
2024/02/09 06:28:31;;;;;;;1.98;1.25;;;10.70;99.90;;;;;;4144021;28;20042;-66
2024/02/09 06:30:33;;;;;;;3.85;1.05;;;10.60;99.90;;;;;;4137757;28;20526;-66
2024/02/09 06:32:33;;;;;;;4.88;1.92;;;10.70;99.90;;;;;;4144528;28;20034;-66
2024/02/09 06:34:34;;;;;;;4.35;1.65;;;10.70;99.90;;;;;;4140024;28;20048;-66
2024/02/09 06:36:34;;;;;;;4.43;1.70;;;10.70;99.90;;;;;;4143696;28;20038;-66
2024/02/09 06:38:36;;;;;;;6.15;1.42;;;10.70;99.90;;;;;;4142839;28;20053;-65
2024/02/09 06:40:38;;;;;;;2.95;1.50;;;10.70;99.90;;;;;;4141922;28;20037;-66
2024/02/09 06:42:38;;;;;;;5.97;2.07;;;10.70;99.90;;;;;;4145387;28;20056;-66
2024/02/09 06:44:42;;;;;;;2.78;1.52;;;10.70;99.90;;;;;;4148626;28;20265;-66
2024/02/09 06:46:43;;;;;;;1.73;1.10;;;10.70;99.90;;;;;;4144867;28;20516;-66
2024/02/09 06:48:46;;;;;;;3.67;1.65;;;10.70;99.90;;;;;;4149194;28;20065;-71
2024/02/09 06:50:48;;;;;;;4.80;1.40;;;10.70;99.90;;;;;;4142236;28;20393;-70
2024/02/09 06:52:48;;;;;;;5.43;1.50;;;10.70;99.90;;;;;;4141309;28;20034;-70
2024/02/09 06:54:50;;;;;;;2.13;1.00;;;10.80;99.90;;;;;;4145794;28;20120;-70
2024/02/09 06:56:53;;;;;;;2.30;1.40;;;10.70;99.90;;;;;;4141006;28;20038;-68
2024/02/09 06:58:54;;;;;;;4.22;1.70;;;10.80;99.90;;;;;;4141834;28;20501;-70
2024/02/09 07:00:55;;;;;;;4.70;1.45;;;10.80;99.90;;;;;;4142820;28;20038;-70
2024/02/09 07:02:56;;;;;;;2.45;1.40;;;10.80;99.90;;;;;;4144604;28;20048;-70
2024/02/09 07:05:00;;;;;;;3.78;1.70;;;10.80;99.90;;;;;;4145810;28;20100;-70
2024/02/09 07:07:05;;;;;;;2.67;1.45;;;10.80;99.90;;;;;;4136877;28;20078;-69
2024/02/09 07:09:07;;;;;;;3.88;1.40;;;10.80;99.90;;;;;;4134311;28;20433;-70
2024/02/09 07:11:12;;;;;;;4.32;1.23;;;10.80;99.90;;;;;;4130892;28;20097;-70
2024/02/09 07:13:16;;;;;;;3.28;1.52;;;10.90;99.90;;;;;;4136536;28;20129;-70
2024/02/09 07:15:17;;;;;;;3.15;1.27;;;10.90;99.90;;;;;;4134387;28;20049;-70
2024/02/09 07:17:17;;;;;;;3.70;2.00;;;10.80;99.90;;;;;;4130151;28;20145;-70
2024/02/09 07:19:18;;;;;;;6.30;1.70;;;10.90;99.90;;;;;;4136891;28;20104;-70
2024/02/09 07:21:20;;;;;;;6.70;1.77;;;10.90;99.90;;;;;;4137585;28;20041;-70
2024/02/09 07:23:20;;;;;;;4.55;1.65;;;10.90;99.90;;;;;;4139648;28;20046;-70
2024/02/09 07:25:21;;;;;;;4.63;2.40;;;10.90;99.90;;;;;;4139711;28;20030;-70
2024/02/09 07:27:22;;;;;;;7.13;2.28;;;10.90;99.90;;;;;;4139259;28;20421;-68
2024/02/09 07:29:22;;;;;;;3.72;1.75;;;10.90;99.90;;;;;;4140024;28;20088;-69
2024/02/09 07:31:24;;;;;;;2.90;1.48;;;10.90;99.90;;;;;;4139474;28;20052;-70
2024/02/09 07:33:25;;;;;;;4.95;1.90;;;10.90;99.90;;;;;;4141656;28;20034;-69
2024/02/09 07:35:25;;;;;;;5.80;1.75;;;10.90;99.90;;;;;;4130891;28;21474;-70
2024/02/09 07:37:26;;;;;;;3.83;1.55;;;10.90;99.90;;;;;;4134634;28;20087;-69
2024/02/09 07:39:27;;;;;;;6.32;1.88;;;11.00;99.90;;;;;;4138107;28;20466;-70
2024/02/09 07:41:30;;;;;;;5.07;1.92;;;10.90;99.90;;;;;;4138563;28;20092;-68
2024/02/09 07:43:31;;;;;;;4.57;1.80;;;11.00;99.90;;;;;;4139681;28;20045;-69
2024/02/09 07:45:32;;;;;;;6.43;1.75;;;11.00;99.90;;;;;;4137613;28;20070;-69
2024/02/09 07:47:33;;;;;;;5.30;1.88;;;11.00;99.90;;;;;;4138292;28;20858;-69
2024/02/09 07:49:33;;;;;;;6.28;1.85;;;11.00;99.90;;;;;;4139457;28;20096;-69
2024/02/09 07:51:34;;;;;;;4.50;1.80;;;11.00;99.90;;;;;;4133347;28;20038;-68
2024/02/09 07:53:35;;;;;;;6.45;1.77;;;11.00;99.90;;;;;;4136839;28;20029;-69
2024/02/09 07:55:36;;;;;;;2.70;1.77;;;11.00;99.90;;;;;;4138850;28;20491;-68
2024/02/09 07:57:36;;;;;;;2.35;1.25;;;11.00;99.90;;;;;;4138164;28;20050;-68
2024/02/09 07:59:39;;;;;;;4.47;1.55;;;11.00;99.90;;;;;;4139411;28;20053;-66
2024/02/09 08:01:40;;;;;;;5.85;1.83;;;11.00;99.90;;;;;;4135808;28;20037;-66
2024/02/09 08:03:40;;;;;;;6.97;1.95;;;11.00;99.90;;;;;;4138046;28;20072;-66
2024/02/09 08:05:41;;;;;;;4.22;1.50;;;11.00;99.90;;;;;;4134878;28;20088;-66
2024/02/09 08:07:42;;;;;;;2.17;1.30;;;11.00;99.90;;;;;;4138037;28;20092;-66
2024/02/09 08:09:42;;;;;;;4.40;1.40;;;11.00;99.90;;;;;;4137790;28;20058;-66
2024/02/09 08:11:45;;;;;;;9.52;2.03;;;11.00;99.90;;;;;;4133641;28;25660;-66
2024/02/09 08:13:48;;;;;;;5.32;1.95;;;11.00;99.90;;;;;;4138669;28;20414;-66
2024/02/09 08:15:49;;;;;;;5.10;2.05;;;11.00;99.90;;;;;;4137110;28;20095;-66
2024/02/09 08:17:50;;;;;;;4.82;1.73;;;11.00;99.90;;;;;;4137729;28;20407;-66
2024/02/09 08:19:51;;;;;;;2.97;1.80;;;11.00;99.90;;;;;;4137167;28;20072;-66
2024/02/09 08:21:51;;;;;;;7.15;2.38;;;11.00;99.90;;;;;;4137915;28;20144;-66
2024/02/09 08:23:52;;;;;;;6.63;2.15;;;11.00;99.90;;;;;;4137517;28;20042;-66
2024/02/09 08:25:53;;;;;;;6.18;2.17;;;11.00;99.90;;;;;;4137900;28;20030;-66
2024/02/09 08:27:54;;;;;;;5.78;1.90;;;11.00;99.90;;;;;;4139088;28;20068;-66
2024/02/09 08:29:57;;;;;;;4.93;2.05;;;11.00;99.90;;;;;;4136661;28;20030;-67
2024/02/09 08:31:58;;;;;;;4.10;2.03;;;11.00;99.90;;;;;;4137334;28;20393;-67
2024/02/09 08:33:59;;;;;;;7.60;1.92;;;11.10;99.90;;;;;;4130490;28;20117;-67
2024/02/09 08:35:59;;;;;;;5.30;1.45;;;11.10;99.90;;;;;;4133521;28;20113;-66
2024/02/09 08:38:00;;;;;;;5.95;1.85;;;11.10;99.90;;;;;;4139361;28;20482;-66
2024/02/09 08:40:01;;;;;;;4.68;1.75;;;11.10;99.90;;;;;;4139695;28;20112;-66
2024/02/09 08:42:02;;;;;;;5.03;1.67;;;11.10;99.90;;;;;;4138324;28;20038;-66
2024/02/09 08:44:03;;;;;;;4.43;1.42;;;11.10;99.90;;;;;;4135955;28;20468;-66
2024/02/09 08:46:03;;;;;;;4.22;1.67;;;11.10;99.90;;;;;;4132450;28;20312;-66
2024/02/09 08:48:04;;;;;;;2.70;1.27;;;11.10;99.90;;;;;;4139952;28;20053;-67
2024/02/09 08:50:06;;;;;;;6.55;1.75;;;11.20;99.90;;;;;;4142488;28;20049;-67
2024/02/09 08:52:07;;;;;;;3.53;1.52;;;11.10;99.90;;;;;;4141887;28;20359;-67
2024/02/09 08:54:07;;;;;;;6.38;2.10;;;11.10;99.90;;;;;;4146178;28;20045;-67
2024/02/09 08:56:09;;;;;;;4.80;2.08;;;11.10;99.90;;;;;;4142272;28;20038;-67
2024/02/09 08:58:10;;;;;;;3.08;1.70;;;11.20;99.90;;;;;;4142443;28;20577;-67
2024/02/09 09:00:11;;;;;;;4.43;1.67;;;11.20;99.90;;;;;;4141559;28;20096;-67
2024/02/09 09:02:11;;;;;;;5.00;1.50;;;11.10;99.90;;;;;;4143965;28;20034;-67
2024/02/09 09:04:13;;;;;;;5.32;1.67;;;11.20;99.90;;;;;;4145305;28;20056;-67
2024/02/09 09:06:14;;;;;;;3.55;1.52;;;11.20;99.90;;;;;;4140034;28;20530;-67
2024/02/09 09:08:14;;;;;;;6.35;1.80;;;11.20;99.90;;;;;;4143265;28;25385;-60
2024/02/09 09:10:15;;;;;;;5.68;1.60;;;11.20;99.90;;;;;;4136662;28;20037;-60
2024/02/09 09:12:16;;;;;;;6.57;1.90;;;11.30;99.90;;;;;;4144254;28;20058;-59
2024/02/09 09:14:16;;;;;;;4.60;1.90;;;11.30;99.90;;;;;;4142727;28;20245;-60
2024/02/09 09:16:17;;;;;;;4.57;1.85;;;11.30;99.90;;;;;;4138586;28;20112;-59
2024/02/09 09:18:17;;;;;;;6.20;1.80;;;11.30;99.90;;;;;;4138537;28;20038;-60
2024/02/09 09:20:18;;;;;;;7.53;1.58;;;11.30;99.90;;;;;;4137543;28;20037;-60
2024/02/09 09:22:19;;;;;;;3.20;1.85;;;11.30;99.90;;;;;;4142998;28;20464;-60
2024/02/09 09:24:19;;;;;;;5.38;1.65;;;11.30;99.90;;;;;;4140922;28;20033;-59
2024/02/09 09:26:20;;;;;;;5.55;1.73;;;11.40;99.90;;;;;;4141360;28;20124;-59
2024/02/09 09:28:21;;;;;;;7.35;2.35;;;11.40;99.90;;;;;;4141522;28;20551;-59
2024/02/09 09:30:22;;;;;;;5.80;1.67;;;11.40;99.90;;;;;;4140408;28;20104;-60
2024/02/09 09:32:23;;;;;;;7.32;2.25;;;11.50;99.90;;;;;;4140943;28;20629;-59
2024/02/09 09:34:23;;;;;;;5.70;2.15;;;11.50;99.90;;;;;;4140775;28;20122;-59
2024/02/09 09:36:26;;;;;;;4.82;1.70;;;11.50;99.90;;;;;;4140667;28;20033;-60
2024/02/09 09:38:26;;;;;;;9.40;1.90;;;11.60;99.90;;;;;;4140729;28;20474;-61
2024/02/09 09:40:35;;;;;;;5.72;1.83;;;11.60;99.90;;;;;;4140320;28;20053;-59
2024/02/09 09:42:35;;;;;;;2.70;1.60;;;11.60;99.90;;;;;;4140219;28;20034;-60
2024/02/09 09:44:36;;;;;;;4.78;1.85;;;11.70;99.90;;;;;;4141330;28;20117;-60
2024/02/09 09:46:45;;;;;;;4.93;1.85;;;11.70;99.90;;;;;;4141744;28;20041;-60
2024/02/09 09:48:47;;;;;;;4.75;1.85;;;11.70;99.90;;;;;;4142741;28;20448;-60
2024/02/09 09:50:50;;;;;;;4.15;1.58;;;11.80;99.90;;;;;;4140012;28;20506;-59
2024/02/09 09:52:52;;;;;;;;;;;11.90;99.90;;;;;;4144762;28;20045;-59
2024/02/09 09:54:54;;;;;;;2.97;1.60;;;11.90;99.90;;;;;;4141500;28;20374;-59
2024/02/09 09:56:57;;;;;;;4.68;1.70;;;12.00;99.90;;;;;;4143536;28;20037;-59
2024/02/09 09:58:57;;;;;;;;;;;12.10;99.90;;;;;;4141900;28;20462;-60
2024/02/09 10:00:58;;;;;;;7.55;1.90;;;12.10;99.90;;;;;;4138213;28;19913;-60
2024/02/09 10:03:00;;;;;;;5.03;1.60;;;12.10;99.90;;;;;;4138642;28;20039;-59
2024/02/09 10:05:01;;;;;;;7.47;1.88;;;12.20;99.90;;;;;;4141512;28;20076;-60
2024/02/09 10:07:05;;;;;;;7.43;1.80;;;12.20;99.90;;;;;;4138980;28;20077;-60
2024/02/09 10:09:08;;;;;;;5.80;2.20;;;12.30;99.90;;;;;;4140136;28;20129;-60
2024/02/09 10:11:09;;;;;;;3.63;1.73;;;12.30;99.90;;;;;;4140342;28;20050;-59
2024/02/09 10:13:11;;;;;;;7.45;1.80;;;12.40;99.90;;;;;;4141760;28;20490;-60
2024/02/09 10:15:12;;;;;;;2.45;1.65;;;12.40;99.90;;;;;;4140296;28;20534;-60
2024/02/09 10:17:12;;;;;;;5.07;1.90;;;12.50;99.90;;;;;;4140766;28;20070;-59
2024/02/09 10:19:13;;;;;;;4.95;1.70;;;12.50;99.90;;;;;;4139850;28;20490;-69
2024/02/09 10:21:14;;;;;;;6.68;1.98;;;12.60;99.90;;;;;;4139138;28;20104;-69
2024/02/09 10:23:19;;;;;;;3.95;1.70;;;12.60;99.90;;;;;;4139900;28;20045;-69
2024/02/09 10:25:21;;;;;;;7.22;1.70;;;12.60;99.90;;;;;;4140482;28;20494;-69
2024/02/09 10:27:22;;;;;;;6.57;1.60;;;12.60;99.90;;;;;;4141743;28;20446;-70
2024/02/09 10:29:24;;;;;;;3.60;1.60;;;12.60;99.90;;;;;;4140713;28;20048;-70
2024/02/09 10:31:26;;;;;;;3.35;1.50;;;12.70;99.90;;;;;;4140734;28;20034;-70
2024/02/09 10:33:27;;;;;;;5.35;1.48;;;12.70;99.90;;;;;;4142656;28;20038;-70
2024/02/09 10:35:28;;;;;;;5.55;1.85;;;12.70;99.90;;;;;;4139709;28;20568;-68
2024/02/09 10:37:28;;;;;;;8.48;1.75;;;12.70;99.90;;;;;;4141533;28;20037;-69
2024/02/09 10:39:29;;;;;;;5.07;1.60;;;12.70;99.90;;;;;;4142956;28;20034;-69
2024/02/09 10:41:33;;;;;;;4.25;1.50;;;12.70;99.90;;;;;;4140127;28;20069;-69
2024/02/09 10:43:35;;;;;;;4.63;1.75;;;12.70;99.90;;;;;;4136488;28;20743;-69
2024/02/09 10:45:40;;;;;;;3.55;1.58;;;12.70;99.90;;;;;;4136338;28;20037;-69
2024/02/09 10:47:44;;;;;;;2.42;1.30;;;12.70;99.90;;;;;;4141530;28;20261;-70
2024/02/09 10:49:47;;;;;;;3.03;1.33;;;12.70;99.90;;;;;;4138284;28;21690;-69
2024/02/09 10:51:51;;;;;;;6.15;1.63;;;12.70;99.90;;;;;;4139935;28;20386;-69
2024/02/09 10:54:00;;;;;;;3.75;1.30;;;12.70;99.90;;;;;;4143959;28;20042;-69
2024/02/09 10:56:06;;;;;;;7.57;1.88;;;12.70;99.90;;;;;;4141769;28;20039;-69
2024/02/09 10:58:10;;;;;;;3.50;1.52;;;12.70;99.90;;;;;;4139983;28;20112;-69
2024/02/09 11:00:11;;;;;;;4.10;1.58;;;12.70;99.90;;;;;;4137822;28;20046;-68
2024/02/09 11:02:14;;;;;;;6.03;1.38;;;12.70;99.90;;;;;;4138126;28;20038;-69
2024/02/09 11:04:15;;;;;;;4.57;1.30;;;12.70;99.90;;;;;;4139922;28;20465;-69
2024/02/09 11:06:15;;;;;;;4.32;1.30;;;12.70;99.90;;;;;;4138209;28;20544;-69
2024/02/09 11:08:17;;;;;;;3.47;1.65;;;12.70;99.90;;;;;;4141837;28;20057;-67
2024/02/09 11:10:18;;;;;;;2.67;1.42;;;12.70;99.90;;;;;;4140275;28;20596;-67
2024/02/09 11:12:22;;;;;;;4.80;1.23;;;12.70;99.90;;;;;;4141827;28;20387;-67
2024/02/09 11:14:30;;;;;;;4.88;1.33;;;12.70;99.90;;;;;;4143379;28;20475;-67
2024/02/09 11:16:31;;;;;;;3.97;1.40;;;12.70;99.90;;;;;;4137706;28;20096;-67
2024/02/09 11:18:32;;;;;;;2.45;1.25;;;12.70;99.90;;;;;;4140922;28;20041;-66
2024/02/09 11:20:32;;;;;;;3.50;1.23;;;12.70;99.90;;;;;;4141106;28;20053;-68
2024/02/09 11:22:37;;;;;;;4.25;1.75;;;12.70;99.90;;;;;;4140776;28;20129;-67
2024/02/09 11:24:46;;;;;;;5.13;1.55;;;12.70;99.90;;;;;;4141000;28;20034;-67
2024/02/09 11:26:48;;;;;;;7.57;1.98;;;12.70;99.90;;;;;;4140446;28;20742;-67
2024/02/09 11:28:49;;;;;;;3.00;1.30;;;12.70;99.90;;;;;;4138433;28;20406;-67
2024/02/09 11:30:54;;;;;;;5.32;1.35;;;12.70;99.90;;;;;;4139031;28;20092;-67
2024/02/09 11:32:58;;;;;;;4.05;1.55;;;12.70;99.90;;;;;;4138965;28;20541;-67
2024/02/09 11:34:59;;;;;;;3.70;1.73;;;12.70;99.90;;;;;;4139759;28;20048;-67
2024/02/09 11:37:00;;;;;;;4.30;1.38;;;12.70;99.90;;;;;;4139250;28;20037;-67
2024/02/09 11:39:01;;;;;;;4.45;1.80;;;12.80;99.90;;;;;;4140559;28;20502;-66
2024/02/09 11:41:02;;;;;;;2.72;1.13;;;12.70;99.90;;;;;;4138128;28;20029;-67
2024/02/09 11:43:03;;;;;;;5.40;1.65;;;12.70;99.90;;;;;;4138165;28;20522;-67
2024/02/09 11:45:06;;;;;;;4.38;2.03;;;12.70;99.90;;;;;;4138778;28;20046;-67
2024/02/09 11:47:07;;;;;;;3.45;1.30;;;12.70;99.90;;;;;;4138885;28;20109;-67
2024/02/09 11:49:07;;;;;;;3.58;1.35;;;12.80;99.90;;;;;;4140024;28;20085;-66
2024/02/09 11:51:08;;;;;;;7.60;1.60;;;12.70;99.90;;;;;;4136673;28;20502;-67
2024/02/09 11:53:09;;;;;;;5.28;1.63;;;12.70;99.90;;;;;;4138710;28;20052;-67
2024/02/09 11:55:09;;;;;;;3.83;1.60;;;12.80;99.90;;;;;;4139602;28;20083;-68
2024/02/09 11:57:10;;;;;;;3.08;1.63;;;12.70;99.90;;;;;;4139766;28;20044;-67
2024/02/09 11:59:11;;;;;;;4.50;1.85;;;12.80;99.90;;;;;;4139282;28;20416;-67
2024/02/09 12:01:11;;;;;;;6.57;2.00;;;12.80;99.90;;;;;;4137557;28;20388;-67
2024/02/09 12:03:13;;;;;;;4.53;1.60;;;12.70;99.90;;;;;;4139007;28;20048;-67
2024/02/09 12:05:13;;;;;;;3.55;1.60;;;12.70;99.90;;;;;;4137770;28;20045;-67
2024/02/09 12:07:14;;;;;;;4.05;1.42;;;12.70;99.90;;;;;;4140338;28;20167;-67
2024/02/09 12:09:15;;;;;;;4.07;1.30;;;12.80;99.90;;;;;;4140112;28;20526;-67
2024/02/09 12:11:20;;;;;;;4.07;1.77;;;12.70;99.90;;;;;;4118628;28;20509;-67
2024/02/09 12:13:20;;;;;;;4.70;1.25;;;12.80;99.90;;;;;;4140655;28;20062;-67
2024/02/09 12:15:21;;;;;;;4.50;1.70;;;12.70;99.90;;;;;;4140142;28;20036;-67
2024/02/09 12:17:21;;;;;;;2.85;1.17;;;12.70;99.90;;;;;;4140123;28;20095;-67
2024/02/09 12:19:22;;;;;;;3.28;1.52;;;12.70;99.90;;;;;;4140384;28;20061;-69